sensor_id;sensor_type;location;lat;lon;timestamp;P1;durP1;ratioP1;P2;durP2;ratioP2
80799;SDS011;70202;52.238;10.680;2023-06-22T00:00:24;1.00;;;0.90;;
80799;SDS011;70202;52.238;10.680;2023-06-22T00:01:24;0.90;;;0.80;;
80799;SDS011;70202;52.238;10.680;2023-06-22T00:02:24;1.00;;;0.80;;
80799;SDS011;70202;52.238;10.680;2023-06-22T00:03:25;1.10;;;1.00;;
80799;SDS011;70202;52.238;10.680;2023-06-22T00:04:26;1.33;;;0.80;;
80799;SDS011;70202;52.238;10.680;2023-06-22T00:05:26;1.02;;;0.82;;
80799;SDS011;70202;52.238;10.680;2023-06-22T00:06:27;0.80;;;0.70;;
80799;SDS011;70202;52.238;10.680;2023-06-22T00:07:28;0.80;;;0.70;;
80799;SDS011;70202;52.238;10.680;2023-06-22T00:08:28;0.70;;;0.70;;
80799;SDS011;70202;52.238;10.680;2023-06-22T00:09:28;1.20;;;0.90;;
80799;SDS011;70202;52.238;10.680;2023-06-22T00:10:29;1.00;;;0.70;;
80799;SDS011;70202;52.238;10.680;2023-06-22T00:11:29;0.98;;;0.80;;
80799;SDS011;70202;52.238;10.680;2023-06-22T00:12:33;1.17;;;0.93;;
80799;SDS011;70202;52.238;10.680;2023-06-22T00:13:33;0.75;;;0.57;;
80799;SDS011;70202;52.238;10.680;2023-06-22T00:14:33;1.25;;;1.00;;
80799;SDS011;70202;52.238;10.680;2023-06-22T00:15:34;1.00;;;0.80;;
80799;SDS011;70202;52.238;10.680;2023-06-22T00:16:35;0.90;;;0.80;;
80799;SDS011;70202;52.238;10.680;2023-06-22T00:17:35;1.27;;;0.90;;
80799;SDS011;70202;52.238;10.680;2023-06-22T00:18:35;1.67;;;0.80;;
80799;SDS011;70202;52.238;10.680;2023-06-22T00:19:36;0.88;;;0.88;;
80799;SDS011;70202;52.238;10.680;2023-06-22T00:20:36;1.35;;;0.80;;
80799;SDS011;70202;52.238;10.680;2023-06-22T00:21:37;0.90;;;0.80;;
80799;SDS011;70202;52.238;10.680;2023-06-22T00:22:38;1.23;;;1.00;;
80799;SDS011;70202;52.238;10.680;2023-06-22T00:23:39;1.05;;;0.85;;
80799;SDS011;70202;52.238;10.680;2023-06-22T00:24:39;1.10;;;1.00;;
80799;SDS011;70202;52.238;10.680;2023-06-22T00:25:39;1.15;;;0.80;;
80799;SDS011;70202;52.238;10.680;2023-06-22T00:26:40;1.10;;;0.80;;
80799;SDS011;70202;52.238;10.680;2023-06-22T00:27:41;1.42;;;0.90;;
80799;SDS011;70202;52.238;10.680;2023-06-22T00:28:41;1.33;;;0.90;;
80799;SDS011;70202;52.238;10.680;2023-06-22T00:29:41;0.85;;;0.82;;
80799;SDS011;70202;52.238;10.680;2023-06-22T00:30:42;1.08;;;0.90;;
80799;SDS011;70202;52.238;10.680;2023-06-22T00:31:42;1.38;;;0.90;;
80799;SDS011;70202;52.238;10.680;2023-06-22T00:32:43;1.52;;;1.00;;
80799;SDS011;70202;52.238;10.680;2023-06-22T00:33:44;1.60;;;1.00;;
80799;SDS011;70202;52.238;10.680;2023-06-22T00:34:44;1.17;;;0.93;;
80799;SDS011;70202;52.238;10.680;2023-06-22T00:35:44;1.10;;;1.00;;
80799;SDS011;70202;52.238;10.680;2023-06-22T00:36:45;1.13;;;0.82;;
80799;SDS011;70202;52.238;10.680;2023-06-22T00:37:45;1.10;;;0.90;;
80799;SDS011;70202;52.238;10.680;2023-06-22T00:38:46;0.88;;;0.80;;
80799;SDS011;70202;52.238;10.680;2023-06-22T00:39:46;0.70;;;0.70;;
80799;SDS011;70202;52.238;10.680;2023-06-22T00:40:46;1.08;;;0.90;;
80799;SDS011;70202;52.238;10.680;2023-06-22T00:41:47;1.13;;;0.88;;
80799;SDS011;70202;52.238;10.680;2023-06-22T00:42:47;0.90;;;0.80;;
80799;SDS011;70202;52.238;10.680;2023-06-22T00:43:47;0.82;;;0.77;;
80799;SDS011;70202;52.238;10.680;2023-06-22T00:44:48;1.42;;;1.00;;
80799;SDS011;70202;52.238;10.680;2023-06-22T00:45:48;1.00;;;0.80;;
80799;SDS011;70202;52.238;10.680;2023-06-22T00:46:49;1.20;;;1.00;;
80799;SDS011;70202;52.238;10.680;2023-06-22T00:47:52;1.08;;;0.93;;
80799;SDS011;70202;52.238;10.680;2023-06-22T00:48:54;1.33;;;1.00;;
80799;SDS011;70202;52.238;10.680;2023-06-22T00:49:57;1.40;;;0.90;;
80799;SDS011;70202;52.238;10.680;2023-06-22T00:50:58;1.25;;;1.05;;
80799;SDS011;70202;52.238;10.680;2023-06-22T00:51:59;1.75;;;1.10;;
80799;SDS011;70202;52.238;10.680;2023-06-22T00:53:06;1.48;;;1.10;;
80799;SDS011;70202;52.238;10.680;2023-06-22T00:54:08;0.65;;;0.65;;
80799;SDS011;70202;52.238;10.680;2023-06-22T00:55:08;1.63;;;1.00;;
80799;SDS011;70202;52.238;10.680;2023-06-22T00:56:09;1.50;;;1.00;;
80799;SDS011;70202;52.238;10.680;2023-06-22T00:57:12;1.00;;;0.90;;
80799;SDS011;70202;52.238;10.680;2023-06-22T00:58:15;1.05;;;0.95;;
80799;SDS011;70202;52.238;10.680;2023-06-22T00:59:16;1.48;;;0.80;;
80799;SDS011;70202;52.238;10.680;2023-06-22T01:00:17;1.80;;;1.00;;
80799;SDS011;70202;52.238;10.680;2023-06-22T01:01:19;1.05;;;0.82;;
80799;SDS011;70202;52.238;10.680;2023-06-22T01:02:23;1.52;;;0.98;;
80799;SDS011;70202;52.238;10.680;2023-06-22T01:03:24;1.70;;;1.00;;
80799;SDS011;70202;52.238;10.680;2023-06-22T01:04:26;1.42;;;1.00;;
80799;SDS011;70202;52.238;10.680;2023-06-22T01:05:35;1.40;;;1.02;;
80799;SDS011;70202;52.238;10.680;2023-06-22T01:06:38;1.40;;;1.00;;
80799;SDS011;70202;52.238;10.680;2023-06-22T01:08:00;1.30;;;0.95;;
80799;SDS011;70202;52.238;10.680;2023-06-22T01:09:15;1.85;;;1.10;;
80799;SDS011;70202;52.238;10.680;2023-06-22T01:11:41;1.55;;;0.98;;
80799;SDS011;70202;52.238;10.680;2023-06-22T01:12:48;1.67;;;1.10;;
80799;SDS011;70202;52.238;10.680;2023-06-22T01:15:02;1.38;;;1.08;;
80799;SDS011;70202;52.238;10.680;2023-06-22T01:17:17;1.60;;;1.10;;
80799;SDS011;70202;52.238;10.680;2023-06-22T01:18:20;1.58;;;0.90;;
80799;SDS011;70202;52.238;10.680;2023-06-22T01:19:39;1.83;;;1.13;;
80799;SDS011;70202;52.238;10.680;2023-06-22T01:20:47;1.50;;;1.10;;
80799;SDS011;70202;52.238;10.680;2023-06-22T01:21:48;1.55;;;1.13;;
80799;SDS011;70202;52.238;10.680;2023-06-22T01:22:59;1.48;;;1.10;;
80799;SDS011;70202;52.238;10.680;2023-06-22T01:24:18;1.80;;;1.20;;
80799;SDS011;70202;52.238;10.680;2023-06-22T01:25:28;1.73;;;1.08;;
80799;SDS011;70202;52.238;10.680;2023-06-22T01:29:46;1.88;;;1.20;;
80799;SDS011;70202;52.238;10.680;2023-06-22T01:30:46;1.58;;;1.20;;
80799;SDS011;70202;52.238;10.680;2023-06-22T01:31:49;1.92;;;1.20;;
80799;SDS011;70202;52.238;10.680;2023-06-22T01:32:51;1.50;;;1.10;;
80799;SDS011;70202;52.238;10.680;2023-06-22T01:33:55;1.42;;;1.13;;
80799;SDS011;70202;52.238;10.680;2023-06-22T01:35:01;2.05;;;1.30;;
80799;SDS011;70202;52.238;10.680;2023-06-22T01:36:04;1.50;;;1.13;;
80799;SDS011;70202;52.238;10.680;2023-06-22T01:37:06;2.13;;;1.20;;
80799;SDS011;70202;52.238;10.680;2023-06-22T01:38:07;1.90;;;1.10;;
80799;SDS011;70202;52.238;10.680;2023-06-22T01:39:08;2.60;;;1.30;;
80799;SDS011;70202;52.238;10.680;2023-06-22T01:40:09;1.80;;;1.20;;
80799;SDS011;70202;52.238;10.680;2023-06-22T01:41:11;3.08;;;1.38;;
80799;SDS011;70202;52.238;10.680;2023-06-22T01:42:12;2.15;;;1.20;;
80799;SDS011;70202;52.238;10.680;2023-06-22T01:43:12;2.00;;;1.30;;
80799;SDS011;70202;52.238;10.680;2023-06-22T01:44:13;1.58;;;1.00;;
80799;SDS011;70202;52.238;10.680;2023-06-22T01:45:14;2.35;;;1.30;;
80799;SDS011;70202;52.238;10.680;2023-06-22T01:46:15;1.55;;;1.20;;
80799;SDS011;70202;52.238;10.680;2023-06-22T01:47:22;1.60;;;1.10;;
80799;SDS011;70202;52.238;10.680;2023-06-22T01:49:26;2.28;;;1.40;;
80799;SDS011;70202;52.238;10.680;2023-06-22T01:50:27;1.95;;;1.30;;
80799;SDS011;70202;52.238;10.680;2023-06-22T01:51:28;2.30;;;1.20;;
80799;SDS011;70202;52.238;10.680;2023-06-22T01:52:28;2.75;;;1.35;;
80799;SDS011;70202;52.238;10.680;2023-06-22T01:53:29;2.08;;;1.20;;
80799;SDS011;70202;52.238;10.680;2023-06-22T01:54:29;1.92;;;1.20;;
80799;SDS011;70202;52.238;10.680;2023-06-22T01:55:30;2.08;;;1.23;;
80799;SDS011;70202;52.238;10.680;2023-06-22T01:56:30;2.00;;;1.20;;
80799;SDS011;70202;52.238;10.680;2023-06-22T01:57:31;1.73;;;1.20;;
80799;SDS011;70202;52.238;10.680;2023-06-22T01:58:32;2.08;;;1.20;;
80799;SDS011;70202;52.238;10.680;2023-06-22T01:59:37;1.83;;;1.20;;
80799;SDS011;70202;52.238;10.680;2023-06-22T02:00:44;2.15;;;1.20;;
80799;SDS011;70202;52.238;10.680;2023-06-22T02:01:59;2.03;;;1.20;;
80799;SDS011;70202;52.238;10.680;2023-06-22T02:03:11;1.77;;;1.10;;
80799;SDS011;70202;52.238;10.680;2023-06-22T02:04:19;1.98;;;1.30;;
80799;SDS011;70202;52.238;10.680;2023-06-22T02:05:24;2.20;;;1.27;;
80799;SDS011;70202;52.238;10.680;2023-06-22T02:06:30;1.55;;;1.02;;
80799;SDS011;70202;52.238;10.680;2023-06-22T02:07:42;1.92;;;1.20;;
80799;SDS011;70202;52.238;10.680;2023-06-22T02:08:49;1.85;;;1.20;;
80799;SDS011;70202;52.238;10.680;2023-06-22T02:09:55;1.95;;;1.30;;
80799;SDS011;70202;52.238;10.680;2023-06-22T02:10:57;1.85;;;1.23;;
80799;SDS011;70202;52.238;10.680;2023-06-22T02:12:00;1.75;;;1.10;;
80799;SDS011;70202;52.238;10.680;2023-06-22T02:13:04;2.03;;;1.20;;
80799;SDS011;70202;52.238;10.680;2023-06-22T02:14:06;2.85;;;1.45;;
80799;SDS011;70202;52.238;10.680;2023-06-22T02:15:08;1.75;;;1.13;;
80799;SDS011;70202;52.238;10.680;2023-06-22T02:16:10;2.95;;;1.20;;
80799;SDS011;70202;52.238;10.680;2023-06-22T02:17:13;1.65;;;1.10;;
80799;SDS011;70202;52.238;10.680;2023-06-22T02:18:14;2.28;;;1.20;;
80799;SDS011;70202;52.238;10.680;2023-06-22T02:19:14;2.15;;;1.17;;
80799;SDS011;70202;52.238;10.680;2023-06-22T02:20:15;2.70;;;1.40;;
80799;SDS011;70202;52.238;10.680;2023-06-22T02:21:19;1.92;;;1.15;;
80799;SDS011;70202;52.238;10.680;2023-06-22T02:22:21;2.33;;;1.30;;
80799;SDS011;70202;52.238;10.680;2023-06-22T02:23:21;1.70;;;1.10;;
80799;SDS011;70202;52.238;10.680;2023-06-22T02:24:21;1.58;;;1.05;;
80799;SDS011;70202;52.238;10.680;2023-06-22T02:25:23;1.23;;;0.95;;
80799;SDS011;70202;52.238;10.680;2023-06-22T02:26:24;1.50;;;1.00;;
80799;SDS011;70202;52.238;10.680;2023-06-22T02:27:25;1.80;;;1.10;;
80799;SDS011;70202;52.238;10.680;2023-06-22T02:28:25;1.85;;;1.20;;
80799;SDS011;70202;52.238;10.680;2023-06-22T02:29:26;1.15;;;0.93;;
80799;SDS011;70202;52.238;10.680;2023-06-22T02:30:27;1.13;;;1.00;;
80799;SDS011;70202;52.238;10.680;2023-06-22T02:31:27;1.40;;;1.00;;
80799;SDS011;70202;52.238;10.680;2023-06-22T02:32:30;1.70;;;0.98;;
80799;SDS011;70202;52.238;10.680;2023-06-22T02:33:30;1.55;;;1.02;;
80799;SDS011;70202;52.238;10.680;2023-06-22T02:34:31;1.35;;;1.00;;
80799;SDS011;70202;52.238;10.680;2023-06-22T02:35:33;1.60;;;1.00;;
80799;SDS011;70202;52.238;10.680;2023-06-22T02:36:35;1.85;;;1.05;;
80799;SDS011;70202;52.238;10.680;2023-06-22T02:37:36;1.73;;;1.10;;
80799;SDS011;70202;52.238;10.680;2023-06-22T02:38:41;1.25;;;1.00;;
80799;SDS011;70202;52.238;10.680;2023-06-22T02:39:48;0.90;;;0.73;;
80799;SDS011;70202;52.238;10.680;2023-06-22T02:40:48;1.08;;;0.88;;
80799;SDS011;70202;52.238;10.680;2023-06-22T02:41:49;2.05;;;1.02;;
80799;SDS011;70202;52.238;10.680;2023-06-22T02:42:51;2.05;;;1.00;;
80799;SDS011;70202;52.238;10.680;2023-06-22T02:43:51;1.30;;;1.00;;
80799;SDS011;70202;52.238;10.680;2023-06-22T02:44:51;1.98;;;1.10;;
80799;SDS011;70202;52.238;10.680;2023-06-22T02:45:52;1.40;;;0.90;;
80799;SDS011;70202;52.238;10.680;2023-06-22T02:46:52;1.27;;;1.00;;
80799;SDS011;70202;52.238;10.680;2023-06-22T02:47:54;1.58;;;1.10;;
80799;SDS011;70202;52.238;10.680;2023-06-22T02:48:55;1.13;;;0.90;;
80799;SDS011;70202;52.238;10.680;2023-06-22T02:49:56;1.45;;;1.00;;
80799;SDS011;70202;52.238;10.680;2023-06-22T02:50:56;1.38;;;1.00;;
80799;SDS011;70202;52.238;10.680;2023-06-22T02:51:57;1.67;;;1.10;;
80799;SDS011;70202;52.238;10.680;2023-06-22T02:52:57;1.38;;;1.00;;
80799;SDS011;70202;52.238;10.680;2023-06-22T02:53:58;2.03;;;1.00;;
80799;SDS011;70202;52.238;10.680;2023-06-22T02:54:58;1.23;;;0.93;;
80799;SDS011;70202;52.238;10.680;2023-06-22T02:55:59;1.98;;;1.10;;
80799;SDS011;70202;52.238;10.680;2023-06-22T02:57:01;1.92;;;1.08;;
80799;SDS011;70202;52.238;10.680;2023-06-22T02:58:04;1.65;;;1.02;;
80799;SDS011;70202;52.238;10.680;2023-06-22T02:59:04;1.50;;;1.00;;
80799;SDS011;70202;52.238;10.680;2023-06-22T03:00:05;1.50;;;1.00;;
80799;SDS011;70202;52.238;10.680;2023-06-22T03:01:16;1.50;;;1.10;;
80799;SDS011;70202;52.238;10.680;2023-06-22T03:02:17;1.33;;;0.90;;
80799;SDS011;70202;52.238;10.680;2023-06-22T03:03:18;1.58;;;0.90;;
80799;SDS011;70202;52.238;10.680;2023-06-22T03:04:19;2.17;;;1.10;;
80799;SDS011;70202;52.238;10.680;2023-06-22T03:05:20;1.75;;;1.10;;
80799;SDS011;70202;52.238;10.680;2023-06-22T03:06:20;1.58;;;0.95;;
80799;SDS011;70202;52.238;10.680;2023-06-22T03:07:23;0.95;;;0.82;;
80799;SDS011;70202;52.238;10.680;2023-06-22T03:08:23;1.88;;;1.10;;
80799;SDS011;70202;52.238;10.680;2023-06-22T03:09:24;1.90;;;1.23;;
80799;SDS011;70202;52.238;10.680;2023-06-22T03:10:24;1.70;;;1.10;;
80799;SDS011;70202;52.238;10.680;2023-06-22T03:11:25;1.85;;;1.08;;
80799;SDS011;70202;52.238;10.680;2023-06-22T03:12:25;2.03;;;1.10;;
80799;SDS011;70202;52.238;10.680;2023-06-22T03:13:26;2.15;;;1.20;;
80799;SDS011;70202;52.238;10.680;2023-06-22T03:14:27;1.50;;;1.02;;
80799;SDS011;70202;52.238;10.680;2023-06-22T03:15:27;1.67;;;1.17;;
80799;SDS011;70202;52.238;10.680;2023-06-22T03:16:29;1.92;;;1.02;;
80799;SDS011;70202;52.238;10.680;2023-06-22T03:17:29;1.67;;;1.02;;
80799;SDS011;70202;52.238;10.680;2023-06-22T03:18:30;1.30;;;0.93;;
80799;SDS011;70202;52.238;10.680;2023-06-22T03:19:30;1.77;;;1.10;;
80799;SDS011;70202;52.238;10.680;2023-06-22T03:20:31;1.38;;;1.00;;
80799;SDS011;70202;52.238;10.680;2023-06-22T03:21:33;1.95;;;1.13;;
80799;SDS011;70202;52.238;10.680;2023-06-22T03:22:33;0.88;;;0.73;;
80799;SDS011;70202;52.238;10.680;2023-06-22T03:23:35;0.98;;;0.73;;
80799;SDS011;70202;52.238;10.680;2023-06-22T03:24:36;1.25;;;0.90;;
80799;SDS011;70202;52.238;10.680;2023-06-22T03:25:39;1.00;;;0.70;;
80799;SDS011;70202;52.238;10.680;2023-06-22T03:26:39;1.67;;;1.00;;
80799;SDS011;70202;52.238;10.680;2023-06-22T03:27:40;1.05;;;0.80;;
80799;SDS011;70202;52.238;10.680;2023-06-22T03:28:40;1.08;;;0.80;;
80799;SDS011;70202;52.238;10.680;2023-06-22T03:29:41;1.15;;;0.70;;
80799;SDS011;70202;52.238;10.680;2023-06-22T03:30:41;0.80;;;0.68;;
80799;SDS011;70202;52.238;10.680;2023-06-22T03:31:41;1.35;;;0.70;;
80799;SDS011;70202;52.238;10.680;2023-06-22T03:32:42;1.30;;;0.80;;
80799;SDS011;70202;52.238;10.680;2023-06-22T03:33:43;0.73;;;0.70;;
80799;SDS011;70202;52.238;10.680;2023-06-22T03:34:43;1.35;;;0.80;;
80799;SDS011;70202;52.238;10.680;2023-06-22T03:35:46;2.20;;;1.33;;
80799;SDS011;70202;52.238;10.680;2023-06-22T03:36:47;1.08;;;0.85;;
80799;SDS011;70202;52.238;10.680;2023-06-22T03:37:48;1.10;;;0.88;;
80799;SDS011;70202;52.238;10.680;2023-06-22T03:38:49;0.93;;;0.80;;
80799;SDS011;70202;52.238;10.680;2023-06-22T03:39:50;1.30;;;0.63;;
80799;SDS011;70202;52.238;10.680;2023-06-22T03:40:50;1.27;;;0.70;;
80799;SDS011;70202;52.238;10.680;2023-06-22T03:41:50;0.50;;;0.50;;
80799;SDS011;70202;52.238;10.680;2023-06-22T03:42:51;0.80;;;0.63;;
80799;SDS011;70202;52.238;10.680;2023-06-22T03:43:51;0.73;;;0.70;;
80799;SDS011;70202;52.238;10.680;2023-06-22T03:44:51;0.98;;;0.70;;
80799;SDS011;70202;52.238;10.680;2023-06-22T03:45:52;1.05;;;0.68;;
80799;SDS011;70202;52.238;10.680;2023-06-22T03:46:52;0.73;;;0.65;;
80799;SDS011;70202;52.238;10.680;2023-06-22T03:47:53;0.52;;;0.52;;
80799;SDS011;70202;52.238;10.680;2023-06-22T03:48:53;0.47;;;0.47;;
80799;SDS011;70202;52.238;10.680;2023-06-22T03:49:53;0.50;;;0.50;;
80799;SDS011;70202;52.238;10.680;2023-06-22T03:50:55;0.93;;;0.55;;
80799;SDS011;70202;52.238;10.680;2023-06-22T03:51:55;1.23;;;0.60;;
80799;SDS011;70202;52.238;10.680;2023-06-22T03:52:55;0.95;;;0.70;;
80799;SDS011;70202;52.238;10.680;2023-06-22T03:53:56;0.80;;;0.60;;
80799;SDS011;70202;52.238;10.680;2023-06-22T03:54:56;1.08;;;0.73;;
80799;SDS011;70202;52.238;10.680;2023-06-22T03:55:57;0.73;;;0.70;;
80799;SDS011;70202;52.238;10.680;2023-06-22T03:56:57;0.60;;;0.60;;
80799;SDS011;70202;52.238;10.680;2023-06-22T03:57:58;1.48;;;0.90;;
80799;SDS011;70202;52.238;10.680;2023-06-22T03:59:05;0.70;;;0.70;;
80799;SDS011;70202;52.238;10.680;2023-06-22T04:00:05;1.10;;;0.80;;
80799;SDS011;70202;52.238;10.680;2023-06-22T04:01:07;0.75;;;0.60;;
80799;SDS011;70202;52.238;10.680;2023-06-22T04:02:11;1.00;;;0.70;;
80799;SDS011;70202;52.238;10.680;2023-06-22T04:03:11;1.35;;;0.90;;
80799;SDS011;70202;52.238;10.680;2023-06-22T04:04:12;1.35;;;0.70;;
80799;SDS011;70202;52.238;10.680;2023-06-22T04:05:12;0.90;;;0.80;;
80799;SDS011;70202;52.238;10.680;2023-06-22T04:06:13;1.30;;;0.80;;
80799;SDS011;70202;52.238;10.680;2023-06-22T04:07:13;1.20;;;0.80;;
80799;SDS011;70202;52.238;10.680;2023-06-22T04:08:14;1.42;;;0.90;;
80799;SDS011;70202;52.238;10.680;2023-06-22T04:09:15;1.63;;;1.00;;
80799;SDS011;70202;52.238;10.680;2023-06-22T04:10:15;1.90;;;1.00;;
80799;SDS011;70202;52.238;10.680;2023-06-22T04:11:16;1.20;;;0.85;;
80799;SDS011;70202;52.238;10.680;2023-06-22T04:12:18;1.73;;;0.93;;
80799;SDS011;70202;52.238;10.680;2023-06-22T04:13:18;0.90;;;0.75;;
80799;SDS011;70202;52.238;10.680;2023-06-22T04:14:18;0.95;;;0.73;;
80799;SDS011;70202;52.238;10.680;2023-06-22T04:15:19;0.90;;;0.70;;
80799;SDS011;70202;52.238;10.680;2023-06-22T04:16:19;1.13;;;0.90;;
80799;SDS011;70202;52.238;10.680;2023-06-22T04:17:19;0.98;;;0.85;;
80799;SDS011;70202;52.238;10.680;2023-06-22T04:18:20;1.17;;;0.95;;
80799;SDS011;70202;52.238;10.680;2023-06-22T04:19:20;1.33;;;0.85;;
80799;SDS011;70202;52.238;10.680;2023-06-22T04:20:21;1.05;;;0.90;;
80799;SDS011;70202;52.238;10.680;2023-06-22T04:21:21;1.48;;;1.10;;
80799;SDS011;70202;52.238;10.680;2023-06-22T04:22:22;0.90;;;0.80;;
80799;SDS011;70202;52.238;10.680;2023-06-22T04:23:22;1.23;;;0.70;;
80799;SDS011;70202;52.238;10.680;2023-06-22T04:24:22;1.63;;;0.98;;
80799;SDS011;70202;52.238;10.680;2023-06-22T04:25:23;1.35;;;0.80;;
80799;SDS011;70202;52.238;10.680;2023-06-22T04:26:23;1.60;;;1.00;;
80799;SDS011;70202;52.238;10.680;2023-06-22T04:27:24;1.10;;;0.80;;
80799;SDS011;70202;52.238;10.680;2023-06-22T04:28:24;1.40;;;0.95;;
80799;SDS011;70202;52.238;10.680;2023-06-22T04:29:24;1.15;;;0.85;;
80799;SDS011;70202;52.238;10.680;2023-06-22T04:30:28;0.93;;;0.75;;
80799;SDS011;70202;52.238;10.680;2023-06-22T04:31:32;0.75;;;0.70;;
80799;SDS011;70202;52.238;10.680;2023-06-22T04:32:36;0.93;;;0.65;;
80799;SDS011;70202;52.238;10.680;2023-06-22T04:33:37;0.88;;;0.68;;
80799;SDS011;70202;52.238;10.680;2023-06-22T04:34:40;1.17;;;0.90;;
80799;SDS011;70202;52.238;10.680;2023-06-22T04:35:41;1.95;;;1.00;;
80799;SDS011;70202;52.238;10.680;2023-06-22T04:36:44;1.67;;;1.00;;
80799;SDS011;70202;52.238;10.680;2023-06-22T04:37:45;1.02;;;0.70;;
80799;SDS011;70202;52.238;10.680;2023-06-22T04:38:46;0.93;;;0.70;;
80799;SDS011;70202;52.238;10.680;2023-06-22T04:39:46;1.08;;;0.80;;
80799;SDS011;70202;52.238;10.680;2023-06-22T04:40:46;1.20;;;0.82;;
80799;SDS011;70202;52.238;10.680;2023-06-22T04:41:47;1.23;;;0.90;;
80799;SDS011;70202;52.238;10.680;2023-06-22T04:42:47;1.45;;;0.82;;
80799;SDS011;70202;52.238;10.680;2023-06-22T04:43:53;1.52;;;0.80;;
80799;SDS011;70202;52.238;10.680;2023-06-22T04:44:53;1.00;;;0.80;;
80799;SDS011;70202;52.238;10.680;2023-06-22T04:45:54;1.02;;;0.65;;
80799;SDS011;70202;52.238;10.680;2023-06-22T04:46:55;0.98;;;0.65;;
80799;SDS011;70202;52.238;10.680;2023-06-22T04:48:00;0.73;;;0.70;;
80799;SDS011;70202;52.238;10.680;2023-06-22T04:49:00;0.50;;;0.50;;
80799;SDS011;70202;52.238;10.680;2023-06-22T04:50:01;0.82;;;0.55;;
80799;SDS011;70202;52.238;10.680;2023-06-22T04:51:05;0.85;;;0.60;;
80799;SDS011;70202;52.238;10.680;2023-06-22T04:52:07;0.95;;;0.70;;
80799;SDS011;70202;52.238;10.680;2023-06-22T04:53:08;1.02;;;0.73;;
80799;SDS011;70202;52.238;10.680;2023-06-22T04:54:09;0.70;;;0.47;;
80799;SDS011;70202;52.238;10.680;2023-06-22T04:55:10;1.13;;;0.57;;
80799;SDS011;70202;52.238;10.680;2023-06-22T04:56:10;0.60;;;0.60;;
80799;SDS011;70202;52.238;10.680;2023-06-22T04:57:11;0.73;;;0.50;;
80799;SDS011;70202;52.238;10.680;2023-06-22T04:58:12;0.95;;;0.77;;
80799;SDS011;70202;52.238;10.680;2023-06-22T04:59:13;0.77;;;0.63;;
80799;SDS011;70202;52.238;10.680;2023-06-22T05:00:13;0.57;;;0.57;;
80799;SDS011;70202;52.238;10.680;2023-06-22T05:01:17;0.65;;;0.65;;
80799;SDS011;70202;52.238;10.680;2023-06-22T05:02:18;0.98;;;0.60;;
80799;SDS011;70202;52.238;10.680;2023-06-22T05:03:18;0.85;;;0.60;;
80799;SDS011;70202;52.238;10.680;2023-06-22T05:04:18;1.23;;;0.80;;
80799;SDS011;70202;52.238;10.680;2023-06-22T05:05:19;0.82;;;0.70;;
80799;SDS011;70202;52.238;10.680;2023-06-22T05:06:19;0.80;;;0.60;;
80799;SDS011;70202;52.238;10.680;2023-06-22T05:07:20;0.70;;;0.60;;
80799;SDS011;70202;52.238;10.680;2023-06-22T05:08:20;0.50;;;0.50;;
80799;SDS011;70202;52.238;10.680;2023-06-22T05:09:21;0.65;;;0.60;;
80799;SDS011;70202;52.238;10.680;2023-06-22T05:10:22;0.95;;;0.80;;
80799;SDS011;70202;52.238;10.680;2023-06-22T05:11:26;0.80;;;0.70;;
80799;SDS011;70202;52.238;10.680;2023-06-22T05:12:27;0.60;;;0.60;;
80799;SDS011;70202;52.238;10.680;2023-06-22T05:13:29;0.88;;;0.60;;
80799;SDS011;70202;52.238;10.680;2023-06-22T05:14:29;0.90;;;0.65;;
80799;SDS011;70202;52.238;10.680;2023-06-22T05:15:30;0.73;;;0.60;;
80799;SDS011;70202;52.238;10.680;2023-06-22T05:16:36;0.68;;;0.50;;
80799;SDS011;70202;52.238;10.680;2023-06-22T05:17:38;0.95;;;0.60;;
80799;SDS011;70202;52.238;10.680;2023-06-22T05:18:42;0.82;;;0.68;;
80799;SDS011;70202;52.238;10.680;2023-06-22T05:19:43;0.82;;;0.60;;
80799;SDS011;70202;52.238;10.680;2023-06-22T05:20:45;0.68;;;0.68;;
80799;SDS011;70202;52.238;10.680;2023-06-22T05:21:45;0.80;;;0.63;;
80799;SDS011;70202;52.238;10.680;2023-06-22T05:22:45;1.00;;;0.70;;
80799;SDS011;70202;52.238;10.680;2023-06-22T05:23:46;0.60;;;0.60;;
80799;SDS011;70202;52.238;10.680;2023-06-22T05:24:46;1.05;;;0.70;;
80799;SDS011;70202;52.238;10.680;2023-06-22T05:25:47;0.52;;;0.50;;
80799;SDS011;70202;52.238;10.680;2023-06-22T05:26:47;0.80;;;0.50;;
80799;SDS011;70202;52.238;10.680;2023-06-22T05:27:47;0.85;;;0.70;;
80799;SDS011;70202;52.238;10.680;2023-06-22T05:28:48;1.05;;;0.75;;
80799;SDS011;70202;52.238;10.680;2023-06-22T05:29:48;0.45;;;0.45;;
80799;SDS011;70202;52.238;10.680;2023-06-22T05:30:48;1.35;;;0.68;;
80799;SDS011;70202;52.238;10.680;2023-06-22T05:31:49;0.75;;;0.75;;
80799;SDS011;70202;52.238;10.680;2023-06-22T05:32:49;0.73;;;0.60;;
80799;SDS011;70202;52.238;10.680;2023-06-22T05:33:51;0.70;;;0.70;;
80799;SDS011;70202;52.238;10.680;2023-06-22T05:34:52;0.95;;;0.60;;
80799;SDS011;70202;52.238;10.680;2023-06-22T05:35:53;0.88;;;0.60;;
80799;SDS011;70202;52.238;10.680;2023-06-22T05:36:53;0.95;;;0.57;;
80799;SDS011;70202;52.238;10.680;2023-06-22T05:37:54;1.00;;;0.65;;
80799;SDS011;70202;52.238;10.680;2023-06-22T05:38:56;0.80;;;0.80;;
80799;SDS011;70202;52.238;10.680;2023-06-22T05:39:58;1.13;;;0.75;;
80799;SDS011;70202;52.238;10.680;2023-06-22T05:40:58;1.27;;;0.70;;
80799;SDS011;70202;52.238;10.680;2023-06-22T05:41:58;0.70;;;0.63;;
80799;SDS011;70202;52.238;10.680;2023-06-22T05:42:59;0.75;;;0.63;;
80799;SDS011;70202;52.238;10.680;2023-06-22T05:44:01;0.82;;;0.63;;
80799;SDS011;70202;52.238;10.680;2023-06-22T05:45:02;0.73;;;0.70;;
80799;SDS011;70202;52.238;10.680;2023-06-22T05:46:03;1.98;;;0.90;;
80799;SDS011;70202;52.238;10.680;2023-06-22T05:47:04;0.88;;;0.57;;
80799;SDS011;70202;52.238;10.680;2023-06-22T05:48:04;1.10;;;0.80;;
80799;SDS011;70202;52.238;10.680;2023-06-22T05:49:05;0.77;;;0.60;;
80799;SDS011;70202;52.238;10.680;2023-06-22T05:50:05;1.23;;;0.90;;
80799;SDS011;70202;52.238;10.680;2023-06-22T05:51:08;1.20;;;0.75;;
80799;SDS011;70202;52.238;10.680;2023-06-22T05:52:09;1.08;;;0.70;;
80799;SDS011;70202;52.238;10.680;2023-06-22T05:53:09;0.77;;;0.63;;
80799;SDS011;70202;52.238;10.680;2023-06-22T05:54:09;1.15;;;0.70;;
80799;SDS011;70202;52.238;10.680;2023-06-22T05:55:10;0.90;;;0.70;;
80799;SDS011;70202;52.238;10.680;2023-06-22T05:56:10;1.00;;;0.90;;
80799;SDS011;70202;52.238;10.680;2023-06-22T05:57:11;0.80;;;0.68;;
80799;SDS011;70202;52.238;10.680;2023-06-22T05:58:11;1.25;;;0.85;;
80799;SDS011;70202;52.238;10.680;2023-06-22T05:59:13;1.13;;;0.70;;
80799;SDS011;70202;52.238;10.680;2023-06-22T06:00:13;1.10;;;0.88;;
80799;SDS011;70202;52.238;10.680;2023-06-22T06:01:14;0.93;;;0.82;;
80799;SDS011;70202;52.238;10.680;2023-06-22T06:02:15;0.95;;;0.70;;
80799;SDS011;70202;52.238;10.680;2023-06-22T06:03:16;0.90;;;0.77;;
80799;SDS011;70202;52.238;10.680;2023-06-22T06:04:17;0.88;;;0.70;;
80799;SDS011;70202;52.238;10.680;2023-06-22T06:05:18;1.13;;;0.77;;
80799;SDS011;70202;52.238;10.680;2023-06-22T06:06:19;0.70;;;0.60;;
80799;SDS011;70202;52.238;10.680;2023-06-22T06:07:28;0.98;;;0.85;;
80799;SDS011;70202;52.238;10.680;2023-06-22T06:08:29;0.68;;;0.68;;
80799;SDS011;70202;52.238;10.680;2023-06-22T06:09:30;0.85;;;0.70;;
80799;SDS011;70202;52.238;10.680;2023-06-22T06:10:31;1.05;;;0.80;;
80799;SDS011;70202;52.238;10.680;2023-06-22T06:11:32;0.90;;;0.77;;
80799;SDS011;70202;52.238;10.680;2023-06-22T06:12:32;0.82;;;0.70;;
80799;SDS011;70202;52.238;10.680;2023-06-22T06:13:33;0.82;;;0.80;;